Terminal Aerodrome Forecast
Issued by NWS Mt. Holly, NJ

Home | Current Version | Previous Version | Text Only | Print | Product List | Glossary On
Versions: 1 2 3 4 5 6 7 8 9 10 11 12 13 14 15 16 17 18 19 20 21 22 23 24 25 26
000
FTUS41 KPHI 021729
TAFTTN
TAF
KTTN 021729Z 0218/0318 32014G24KT P6SM SCT050
     FM022200 32008KT P6SM SCT250
     FM030400 34005KT P6SM SCT250
     FM031200 04005KT P6SM BKN150
     FM031700 17005KT P6SM OVC080=

USA.gov is the U.S. government's official web portal to all federal, state and local government web resources and services.